createdAt,value
2023-04-27T00:02:20.108Z,99.90
2023-04-27T00:04:47.625Z,99.90
2023-04-27T00:07:14.955Z,99.90
2023-04-27T00:09:41.903Z,99.90
2023-04-27T00:12:09.061Z,99.90
2023-04-27T00:14:36.164Z,99.90
2023-04-27T00:17:03.126Z,99.90
2023-04-27T00:19:30.920Z,99.90
2023-04-27T00:22:00.484Z,99.90
2023-04-27T00:24:27.684Z,99.90
2023-04-27T00:26:54.906Z,99.90
2023-04-27T00:29:21.892Z,99.90
2023-04-27T00:31:48.945Z,99.90
2023-04-27T00:34:16.060Z,99.90
2023-04-27T00:36:43.025Z,99.90
2023-04-27T00:39:10.020Z,99.90
2023-04-27T00:41:39.881Z,99.90
2023-04-27T00:44:06.941Z,99.90
2023-04-27T00:46:35.110Z,99.90
2023-04-27T00:49:02.542Z,99.90
2023-04-27T00:51:31.513Z,99.90
2023-04-27T00:53:59.098Z,99.90
2023-04-27T00:56:26.246Z,99.90
2023-04-27T00:58:53.211Z,99.90
2023-04-27T01:01:21.654Z,99.90
2023-04-27T01:03:49.202Z,99.90
2023-04-27T01:06:16.371Z,99.90
2023-04-27T01:08:44.544Z,99.90
2023-04-27T01:11:11.506Z,99.90
2023-04-27T01:13:42.648Z,99.90
2023-04-27T01:16:09.980Z,99.90
2023-04-27T01:18:40.862Z,99.90
2023-04-27T01:21:08.378Z,99.90
2023-04-27T01:23:35.542Z,99.90
2023-04-27T01:26:04.015Z,99.90
2023-04-27T01:28:31.633Z,99.90
2023-04-27T01:31:00.795Z,99.90
2023-04-27T01:33:27.767Z,99.90
2023-04-27T01:35:54.794Z,99.90
2023-04-27T01:38:21.871Z,99.90
2023-04-27T01:40:48.861Z,99.90
2023-04-27T01:43:16.039Z,99.90
2023-04-27T01:45:43.159Z,99.90
2023-04-27T01:48:10.257Z,99.90
2023-04-27T01:50:37.385Z,99.90
2023-04-27T01:53:06.886Z,99.90
2023-04-27T01:55:34.284Z,99.90
2023-04-27T01:58:02.053Z,99.90
2023-04-27T02:00:29.193Z,99.90
2023-04-27T02:02:57.734Z,99.90
2023-04-27T02:05:24.955Z,99.90
2023-04-27T02:07:53.550Z,99.90
2023-04-27T02:10:22.681Z,99.90
2023-04-27T02:12:49.709Z,99.90
2023-04-27T02:15:16.884Z,99.90
2023-04-27T02:17:44.311Z,99.90
2023-04-27T02:20:13.123Z,99.90
2023-04-27T02:22:45.307Z,99.90
2023-04-27T02:25:13.665Z,99.90
2023-04-27T02:27:42.846Z,99.90
2023-04-27T02:30:11.926Z,99.90
2023-04-27T02:32:40.113Z,99.90
2023-04-27T02:35:08.120Z,99.90
2023-04-27T02:37:35.520Z,99.90
2023-04-27T02:40:06.693Z,99.90
2023-04-27T02:42:33.885Z,99.90
2023-04-27T02:45:00.874Z,99.90
2023-04-27T02:47:27.856Z,99.90
2023-04-27T02:49:54.890Z,99.90
2023-04-27T02:52:21.869Z,99.90
2023-04-27T02:54:48.875Z,99.90
2023-04-27T02:57:15.989Z,99.90
2023-04-27T02:59:43.002Z,99.90
2023-04-27T03:02:10.092Z,99.90
2023-04-27T03:04:38.814Z,99.90
2023-04-27T03:07:06.526Z,99.90
2023-04-27T03:09:34.464Z,99.90
2023-04-27T03:12:01.456Z,99.90
2023-04-27T03:14:28.468Z,99.90
2023-04-27T03:16:57.580Z,99.90
2023-04-27T03:19:25.116Z,99.90
2023-04-27T03:21:52.370Z,99.90
2023-04-27T03:24:19.390Z,99.90
2023-04-27T03:26:46.782Z,99.90
2023-04-27T03:29:13.964Z,99.90
2023-04-27T03:31:41.158Z,99.90
2023-04-27T03:34:08.143Z,99.90
2023-04-27T03:36:35.165Z,99.90
2023-04-27T03:39:02.189Z,99.90
2023-04-27T03:41:29.691Z,99.90
2023-04-27T03:43:56.740Z,99.90
2023-04-27T03:46:23.814Z,99.90
2023-04-27T03:48:50.949Z,99.90
2023-04-27T03:51:18.535Z,99.90
2023-04-27T03:53:47.057Z,99.90
2023-04-27T03:56:14.963Z,99.90
2023-04-27T03:58:42.043Z,99.90
2023-04-27T04:01:14.920Z,99.90
2023-04-27T04:03:42.130Z,99.90
2023-04-27T04:06:09.506Z,99.90
2023-04-27T04:08:36.707Z,99.90
2023-04-27T04:11:04.099Z,99.90
2023-04-27T04:13:31.786Z,99.90
2023-04-27T04:16:09.748Z,99.90
2023-04-27T04:18:37.134Z,99.90
2023-04-27T04:21:06.164Z,99.90
2023-04-27T04:23:33.219Z,99.90
2023-04-27T04:26:00.464Z,99.90
2023-04-27T04:28:31.690Z,99.90
2023-04-27T04:31:01.227Z,99.90
2023-04-27T04:33:28.333Z,99.90
2023-04-27T04:35:55.917Z,99.90
2023-04-27T04:38:24.028Z,99.90
2023-04-27T04:40:53.132Z,99.90
2023-04-27T04:43:22.324Z,99.90
2023-04-27T04:45:52.578Z,99.90
2023-04-27T04:48:20.490Z,99.90
2023-04-27T04:50:47.806Z,99.90
2023-04-27T04:53:15.033Z,99.90
2023-04-27T04:55:42.727Z,99.90
2023-04-27T04:58:10.498Z,99.90
2023-04-27T05:00:37.513Z,99.90
2023-04-27T05:03:04.678Z,99.90
2023-04-27T05:05:31.862Z,99.90
2023-04-27T05:07:58.874Z,99.90
2023-04-27T05:10:25.914Z,99.90
2023-04-27T05:12:52.861Z,99.90
2023-04-27T05:15:19.992Z,99.90
2023-04-27T05:17:46.991Z,99.90
2023-04-27T05:20:14.178Z,99.90
2023-04-27T05:22:41.251Z,99.90
2023-04-27T05:25:08.744Z,99.90
2023-04-27T05:27:35.853Z,99.90
2023-04-27T05:30:03.459Z,99.90
2023-04-27T05:32:30.929Z,99.90
2023-04-27T05:34:57.996Z,99.90
2023-04-27T05:37:25.045Z,99.90
2023-04-27T05:39:55.368Z,99.90
2023-04-27T05:42:22.937Z,99.90
2023-04-27T05:44:50.892Z,99.90
2023-04-27T05:47:18.454Z,99.90
2023-04-27T05:49:52.291Z,99.90
2023-04-27T05:52:20.932Z,99.90
2023-04-27T05:54:50.055Z,99.90
2023-04-27T05:57:20.781Z,99.90
2023-04-27T05:59:49.289Z,99.90
2023-04-27T06:02:17.697Z,99.90
2023-04-27T06:04:45.838Z,99.90
2023-04-27T06:07:16.376Z,99.90
2023-04-27T06:09:44.335Z,99.90
2023-04-27T06:12:12.280Z,99.90
2023-04-27T06:14:40.098Z,99.90
2023-04-27T06:17:07.872Z,99.90
2023-04-27T06:19:35.930Z,99.90
2023-04-27T06:22:04.622Z,99.90
2023-04-27T06:24:32.595Z,99.90
2023-04-27T06:27:03.215Z,99.90
2023-04-27T06:29:30.912Z,99.90
2023-04-27T06:31:58.643Z,99.90
2023-04-27T06:34:26.632Z,99.90
2023-04-27T06:36:54.605Z,99.90
2023-04-27T06:39:22.473Z,99.90
2023-04-27T06:41:53.454Z,99.90
2023-04-27T06:44:24.326Z,99.90
2023-04-27T06:46:52.075Z,99.90
2023-04-27T06:49:19.888Z,99.90
2023-04-27T06:51:48.658Z,99.90
2023-04-27T06:54:16.961Z,99.90
2023-04-27T06:56:47.773Z,99.90
2023-04-27T06:59:15.803Z,99.90
2023-04-27T07:01:43.721Z,99.90
2023-04-27T07:04:11.517Z,99.90
2023-04-27T07:06:42.648Z,99.90
2023-04-27T07:09:26.686Z,99.90
2023-04-27T07:11:56.387Z,99.90
2023-04-27T07:14:24.486Z,99.90
2023-04-27T07:16:52.367Z,99.90
2023-04-27T07:19:20.160Z,99.90
2023-04-27T07:21:48.256Z,99.90
2023-04-27T07:24:15.975Z,99.90
2023-04-27T07:26:46.749Z,99.90
2023-04-27T07:29:26.657Z,99.90
2023-04-27T07:31:59.044Z,99.90
2023-04-27T07:34:29.203Z,99.90
2023-04-27T07:37:00.795Z,99.90
2023-04-27T07:39:28.725Z,99.90
2023-04-27T07:41:56.966Z,99.90
2023-04-27T07:44:24.755Z,99.90
2023-04-27T07:46:58.906Z,99.90
2023-04-27T07:49:26.921Z,99.90
2023-04-27T07:51:54.540Z,99.90
2023-04-27T07:54:22.272Z,99.90
2023-04-27T07:56:49.957Z,99.90
2023-04-27T07:59:20.349Z,99.90
2023-04-27T08:01:50.773Z,99.90
2023-04-27T08:04:19.429Z,99.90
2023-04-27T08:06:47.963Z,99.90
2023-04-27T08:09:16.200Z,99.90
2023-04-27T08:11:47.300Z,99.90
2023-04-27T08:14:18.202Z,99.90
2023-04-27T08:16:45.920Z,99.90
2023-04-27T08:19:13.875Z,99.90
2023-04-27T08:21:41.654Z,99.90
2023-04-27T08:24:09.448Z,99.90
2023-04-27T08:26:37.196Z,99.90
2023-04-27T08:29:15.523Z,99.90
2023-04-27T08:31:52.953Z,99.90
2023-04-27T08:34:21.933Z,99.90
2023-04-27T08:36:49.677Z,99.90
2023-04-27T08:39:18.651Z,99.90
2023-04-27T08:41:46.820Z,99.90
2023-04-27T08:44:17.477Z,99.90
2023-04-27T08:46:45.458Z,99.90
2023-04-27T08:49:15.981Z,99.90
2023-04-27T08:51:45.251Z,99.90
2023-04-27T08:54:13.117Z,99.90
2023-04-27T08:56:43.614Z,99.90
2023-04-27T08:59:15.803Z,99.90
2023-04-27T09:01:49.494Z,99.90
2023-04-27T09:04:18.604Z,86.70
2023-04-27T09:06:50.246Z,66.20
2023-04-27T09:09:24.895Z,63.40
2023-04-27T09:11:55.868Z,61.20
2023-04-27T09:14:25.962Z,60.30
2023-04-27T09:16:58.408Z,59.30
2023-04-27T09:19:30.480Z,65.90
2023-04-27T09:22:09.699Z,63.20
2023-04-27T09:24:52.954Z,60.20
2023-04-27T09:27:22.435Z,60.20
2023-04-27T09:29:49.642Z,57.90
2023-04-27T09:32:23.393Z,70.50
2023-04-27T09:34:51.351Z,59.80
2023-04-27T09:37:19.947Z,59.60
2023-04-27T09:39:48.740Z,60.80
2023-04-27T09:42:16.976Z,56.20
2023-04-27T09:44:44.714Z,62.60
2023-04-27T09:47:15.884Z,65.30
2023-04-27T09:49:43.836Z,58.00
2023-04-27T09:52:14.754Z,63.60
2023-04-27T09:54:42.873Z,58.00
2023-04-27T09:57:28.987Z,59.70
2023-04-27T10:00:11.315Z,59.50
2023-04-27T10:02:55.768Z,63.30
2023-04-27T10:05:56.747Z,61.90
2023-04-27T10:08:23.991Z,58.20
2023-04-27T10:10:53.909Z,62.20
2023-04-27T10:13:26.752Z,68.00
2023-04-27T10:15:54.776Z,56.20
2023-04-27T10:18:36.008Z,63.20
2023-04-27T10:21:11.521Z,75.20
2023-04-27T10:23:52.967Z,67.10
2023-04-27T10:26:28.542Z,66.80
2023-04-27T10:29:08.072Z,64.20
2023-04-27T10:31:36.553Z,66.00
2023-04-27T10:34:11.980Z,75.70
2023-04-27T10:36:41.422Z,76.50
2023-04-27T10:39:17.091Z,78.00
2023-04-27T10:41:56.702Z,72.50
2023-04-27T10:44:29.093Z,56.50
2023-04-27T10:47:02.899Z,55.60
2023-04-27T10:49:31.854Z,55.30
2023-04-27T10:52:00.978Z,56.80
2023-04-27T10:54:29.862Z,73.10
2023-04-27T10:57:11.850Z,59.40
2023-04-27T10:59:50.026Z,75.00
2023-04-27T11:02:17.865Z,58.40
2023-04-27T11:04:45.993Z,53.90
2023-04-27T11:07:23.381Z,53.00
2023-04-27T11:09:50.515Z,54.80
2023-04-27T11:12:17.588Z,55.60
2023-04-27T11:14:44.780Z,55.50
2023-04-27T11:17:13.700Z,63.40
2023-04-27T11:19:50.263Z,67.90
2023-04-27T11:22:17.881Z,61.60
2023-04-27T11:24:52.704Z,76.10
2023-04-27T11:27:22.388Z,62.60
2023-04-27T11:29:50.275Z,60.40
2023-04-27T11:32:21.838Z,65.20
2023-04-27T11:34:54.028Z,59.20
2023-04-27T11:37:28.068Z,63.10
2023-04-27T11:39:57.680Z,57.00
2023-04-27T11:42:28.757Z,53.80
2023-04-27T11:45:08.189Z,63.70
2023-04-27T11:47:36.217Z,78.00
2023-04-27T11:50:06.592Z,63.60
2023-04-27T11:52:37.525Z,71.50
2023-04-27T11:55:05.422Z,58.70
2023-04-27T11:57:34.871Z,56.60
2023-04-27T12:00:11.583Z,75.10
2023-04-27T12:02:44.011Z,76.90
2023-04-27T12:05:13.800Z,71.60
2023-04-27T12:07:41.671Z,73.50
2023-04-27T12:10:09.349Z,75.70
2023-04-27T12:12:36.709Z,76.10
2023-04-27T12:15:04.033Z,75.40
2023-04-27T12:17:31.957Z,76.20
2023-04-27T12:19:59.497Z,76.00
2023-04-27T12:22:27.369Z,74.20
2023-04-27T12:24:55.125Z,82.40
2023-04-27T12:27:22.808Z,77.50
2023-04-27T12:29:50.678Z,83.10
2023-04-27T12:32:18.475Z,84.10
2023-04-27T12:34:47.231Z,82.40
2023-04-27T12:37:15.106Z,81.40
2023-04-27T12:39:42.962Z,71.40
2023-04-27T12:42:10.797Z,73.20
2023-04-27T12:44:38.573Z,76.20
2023-04-27T12:47:06.513Z,71.30
2023-04-27T12:49:34.514Z,76.50
2023-04-27T12:52:02.249Z,74.00
2023-04-27T12:54:29.878Z,71.30
2023-04-27T12:57:03.990Z,74.20
2023-04-27T12:59:40.697Z,76.90
2023-04-27T13:02:10.180Z,69.10
2023-04-27T13:04:38.129Z,75.50
2023-04-27T13:07:07.008Z,78.20
2023-04-27T13:09:34.823Z,75.40
2023-04-27T13:12:02.752Z,66.00
2023-04-27T13:14:32.584Z,69.70
2023-04-27T13:17:00.448Z,63.60
2023-04-27T13:19:28.283Z,51.70
2023-04-27T13:21:56.021Z,53.60
2023-04-27T13:24:25.079Z,52.60
2023-04-27T13:26:53.125Z,59.00
2023-04-27T13:29:21.354Z,65.20
2023-04-27T13:31:49.720Z,75.10
2023-04-27T13:34:19.336Z,70.00
2023-04-27T13:36:49.379Z,69.10
2023-04-27T13:39:17.199Z,64.40
2023-04-27T13:41:44.279Z,72.00
2023-04-27T13:44:11.331Z,72.80
2023-04-27T13:46:38.908Z,75.60
2023-04-27T13:49:09.580Z,71.30
2023-04-27T13:51:37.374Z,73.20
2023-04-27T13:54:05.601Z,74.10
2023-04-27T13:56:32.808Z,72.50
2023-04-27T13:59:00.824Z,75.60
2023-04-27T14:01:29.416Z,75.10
2023-04-27T14:03:58.038Z,73.70
2023-04-27T14:06:27.807Z,75.80
2023-04-27T14:08:55.793Z,69.90
2023-04-27T14:11:26.765Z,74.40
2023-04-27T14:13:54.622Z,73.80
2023-04-27T14:16:28.224Z,76.50
2023-04-27T14:18:58.781Z,75.60
2023-04-27T14:21:26.755Z,73.00
2023-04-27T14:23:54.437Z,70.70
2023-04-27T14:26:22.573Z,68.30
2023-04-27T14:28:50.248Z,68.80
2023-04-27T14:31:18.726Z,67.30
2023-04-27T14:33:52.485Z,62.00
2023-04-27T14:36:20.121Z,59.40
2023-04-27T14:38:47.891Z,57.00
2023-04-27T14:41:15.685Z,59.60
2023-04-27T14:43:45.198Z,61.40
2023-04-27T14:48:47.959Z,61.20
2023-04-27T14:51:16.421Z,59.90
2023-04-27T14:53:44.724Z,57.00
2023-04-27T14:56:12.931Z,61.40
2023-04-27T14:58:41.539Z,60.50
2023-04-27T15:01:09.595Z,57.30
2023-04-27T15:03:37.769Z,58.00
2023-04-27T15:06:06.293Z,55.70
2023-04-27T15:08:34.551Z,60.70
2023-04-27T15:11:04.434Z,61.10
2023-04-27T15:13:32.237Z,59.30
2023-04-27T15:16:01.560Z,56.80
2023-04-27T15:18:29.370Z,59.70
2023-04-27T15:20:58.766Z,58.50
2023-04-27T15:23:28.257Z,58.20
2023-04-27T15:25:58.197Z,53.00
2023-04-27T15:28:26.308Z,57.40
2023-04-27T15:30:54.218Z,55.90
2023-04-27T15:33:22.184Z,53.60
2023-04-27T15:35:50.610Z,53.40
2023-04-27T15:38:18.214Z,57.80
2023-04-27T15:40:45.827Z,56.50
2023-04-27T15:43:13.715Z,55.60
2023-04-27T15:45:42.238Z,59.50
2023-04-27T15:48:12.874Z,61.00
2023-04-27T15:50:45.114Z,61.20
2023-04-27T15:53:13.329Z,58.20
2023-04-27T15:55:44.151Z,54.00
2023-04-27T15:58:11.631Z,61.90
2023-04-27T16:00:42.552Z,61.60
2023-04-27T16:03:11.313Z,57.50
2023-04-27T16:05:39.327Z,58.70
2023-04-27T16:08:09.448Z,59.10
2023-04-27T16:10:37.297Z,55.60
2023-04-27T16:13:05.061Z,59.40
2023-04-27T16:15:32.360Z,58.90
2023-04-27T16:17:59.911Z,56.50
2023-04-27T16:20:29.153Z,56.80
2023-04-27T16:22:56.766Z,54.20
2023-04-27T16:25:24.467Z,57.90
2023-04-27T16:27:52.624Z,60.60
2023-04-27T16:30:20.469Z,60.10
2023-04-27T16:32:48.492Z,61.00
2023-04-27T16:35:15.882Z,60.60
2023-04-27T16:37:51.243Z,60.40
2023-04-27T16:40:19.070Z,59.50
2023-04-27T16:42:47.651Z,63.70
2023-04-27T16:45:15.724Z,63.40
2023-04-27T16:47:45.430Z,55.70
2023-04-27T16:50:12.832Z,56.30
2023-04-27T16:52:40.400Z,56.70
2023-04-27T16:55:08.432Z,58.10
2023-04-27T17:00:18.214Z,54.10
2023-04-27T17:02:45.816Z,54.80
2023-04-27T17:05:16.396Z,54.80
2023-04-27T17:07:47.870Z,55.90
2023-04-27T17:10:17.135Z,56.90
2023-04-27T17:12:49.768Z,57.40
2023-04-27T17:15:29.071Z,58.40
2023-04-27T17:17:57.026Z,59.80
2023-04-27T17:20:25.026Z,61.60
2023-04-27T17:22:52.726Z,64.00
2023-04-27T17:25:20.436Z,60.80
2023-04-27T17:27:48.170Z,60.00
2023-04-27T17:30:15.701Z,61.10
2023-04-27T17:32:57.413Z,59.60
2023-04-27T17:35:25.429Z,60.00
2023-04-27T17:37:54.174Z,60.80
2023-04-27T17:40:23.308Z,60.90
2023-04-27T17:42:51.118Z,61.70
2023-04-27T17:45:18.869Z,61.70
2023-04-27T17:47:46.403Z,62.10
2023-04-27T17:50:14.960Z,62.60
2023-04-27T17:52:42.072Z,63.90
2023-04-27T17:55:09.816Z,65.80
2023-04-27T17:57:37.680Z,67.30
2023-04-27T18:00:05.363Z,67.80
2023-04-27T18:02:37.608Z,66.70
2023-04-27T18:05:06.636Z,66.10
2023-04-27T18:07:38.074Z,67.00
2023-04-27T18:10:06.758Z,67.10
2023-04-27T18:12:34.559Z,67.30
2023-04-27T18:15:04.389Z,69.10
2023-04-27T18:17:32.815Z,69.00
2023-04-27T18:20:07.485Z,70.60
2023-04-27T18:22:39.578Z,72.20
2023-04-27T18:25:08.413Z,69.90
2023-04-27T18:27:37.977Z,71.60
2023-04-27T18:30:08.944Z,69.90
2023-04-27T18:32:36.711Z,70.10
2023-04-27T18:35:06.082Z,69.70
2023-04-27T18:37:34.064Z,70.70
2023-04-27T18:40:01.767Z,70.60
2023-04-27T18:42:29.714Z,71.00
2023-04-27T18:45:01.000Z,71.20
2023-04-27T18:47:28.376Z,71.80
2023-04-27T18:49:55.927Z,72.30
2023-04-27T18:52:23.842Z,72.40
2023-04-27T18:54:51.459Z,72.40
2023-04-27T18:57:19.377Z,72.80
2023-04-27T18:59:47.081Z,73.30
2023-04-27T19:02:15.341Z,73.70
2023-04-27T19:04:48.954Z,73.20
2023-04-27T19:07:28.213Z,73.10
2023-04-27T19:09:59.364Z,73.40
2023-04-27T19:12:31.862Z,73.70
2023-04-27T19:14:59.750Z,74.10
2023-04-27T19:17:27.917Z,74.90
2023-04-27T19:19:56.500Z,75.30
2023-04-27T19:22:24.480Z,75.70
2023-04-27T19:24:52.168Z,74.90
2023-04-27T19:27:22.887Z,74.50
2023-04-27T19:29:58.870Z,74.00
2023-04-27T19:32:28.103Z,74.20
2023-04-27T19:35:13.403Z,74.60
2023-04-27T19:37:43.138Z,75.10
2023-04-27T19:40:17.800Z,75.30
2023-04-27T19:42:59.724Z,76.30
2023-04-27T19:45:27.562Z,75.70
2023-04-27T19:48:09.671Z,75.40
2023-04-27T19:50:46.024Z,75.60
2023-04-27T19:53:57.099Z,76.30
2023-04-27T20:00:24.129Z,77.40
2023-04-27T20:20:25.426Z,80.70
2023-04-27T20:22:52.513Z,83.40
2023-04-27T20:25:20.308Z,82.10
2023-04-27T20:27:47.442Z,81.70
2023-04-27T20:30:14.512Z,84.70
2023-04-27T20:32:41.625Z,82.70
2023-04-27T20:35:12.070Z,82.80
2023-04-27T20:37:40.221Z,81.50
2023-04-27T20:40:08.296Z,81.70
2023-04-27T20:42:36.152Z,86.20
2023-04-27T20:45:05.603Z,84.10
2023-04-27T20:47:32.645Z,85.10
2023-04-27T20:49:59.826Z,81.70
2023-04-27T20:52:30.553Z,82.00
2023-04-27T20:54:58.975Z,81.80
2023-04-27T20:57:25.966Z,86.80
2023-04-27T20:59:52.948Z,86.30
2023-04-27T21:02:20.383Z,82.00
2023-04-27T21:04:47.498Z,82.10
2023-04-27T21:07:14.483Z,81.00
2023-04-27T21:09:41.817Z,82.80
2023-04-27T21:12:09.127Z,83.30
2023-04-27T21:14:36.531Z,82.30
2023-04-27T21:17:03.825Z,83.30
2023-04-27T21:19:31.176Z,84.20
2023-04-27T21:21:58.105Z,86.50
2023-04-27T21:24:25.328Z,83.70
2023-04-27T21:26:52.615Z,82.70
2023-04-27T21:29:19.645Z,82.80
2023-04-27T21:31:47.009Z,83.20
2023-04-27T21:34:14.270Z,83.50
2023-04-27T21:36:41.366Z,86.90
2023-04-27T21:39:08.382Z,90.50
2023-04-27T21:41:37.297Z,90.70
2023-04-27T21:44:04.459Z,90.10
2023-04-27T21:46:31.787Z,90.70
2023-04-27T21:48:58.804Z,90.30
2023-04-27T21:51:25.828Z,90.90
2023-04-27T21:53:52.813Z,88.20
2023-04-27T21:56:20.052Z,86.40
2023-04-27T21:58:47.267Z,87.10
2023-04-27T22:01:14.607Z,86.20
2023-04-27T22:03:42.227Z,86.20
2023-04-27T22:06:09.527Z,86.00
2023-04-27T22:08:36.590Z,86.40
2023-04-27T22:11:03.630Z,86.90
2023-04-27T22:13:30.803Z,87.20
2023-04-27T22:15:57.889Z,90.80
2023-04-27T22:18:24.961Z,90.90
2023-04-27T22:20:52.130Z,89.90
2023-04-27T22:23:19.137Z,89.10
2023-04-27T22:25:46.668Z,91.00
2023-04-27T22:28:13.697Z,92.50
2023-04-27T22:30:42.285Z,93.10
2023-04-27T22:33:09.946Z,93.80
2023-04-27T22:35:37.704Z,91.40
2023-04-27T22:38:04.866Z,90.70
2023-04-27T22:40:32.173Z,91.50
2023-04-27T22:42:59.217Z,90.90
2023-04-27T22:45:26.421Z,90.60
2023-04-27T22:47:54.173Z,90.80
2023-04-27T22:50:21.546Z,91.70
2023-04-27T22:52:48.615Z,91.20
2023-04-27T22:55:16.303Z,91.10
2023-04-27T22:57:44.564Z,91.20
2023-04-27T23:00:12.524Z,91.50
2023-04-27T23:02:40.547Z,91.60
2023-04-27T23:05:08.600Z,92.40
2023-04-27T23:07:36.425Z,92.20
2023-04-27T23:10:03.752Z,92.20
2023-04-27T23:12:31.504Z,92.50
2023-04-27T23:14:59.479Z,92.90
2023-04-27T23:17:30.821Z,93.20
2023-04-27T23:19:59.113Z,93.40
2023-04-27T23:22:26.687Z,93.60
2023-04-27T23:24:54.453Z,95.10
2023-04-27T23:27:22.673Z,94.50
2023-04-27T23:29:49.654Z,93.30
2023-04-27T23:32:16.978Z,94.60
2023-04-27T23:34:44.031Z,95.90
2023-04-27T23:37:11.035Z,99.90
2023-04-27T23:39:38.498Z,98.20
2023-04-27T23:42:06.018Z,99.90
2023-04-27T23:44:33.048Z,99.90
2023-04-27T23:47:00.061Z,99.90
2023-04-27T23:49:27.055Z,99.90
2023-04-27T23:51:54.052Z,99.90
2023-04-27T23:54:21.056Z,99.90
2023-04-27T23:56:49.897Z,99.90
2023-04-27T23:59:17.341Z,99.90
